sensor_id;sensor_type;location;lat;lon;timestamp;P1;durP1;ratioP1;P2;durP2;ratioP2
60472;SDS011;46318;52.716;6.444;2022-09-28T00:01:15;15.98;;;12.30;;
60472;SDS011;46318;52.716;6.444;2022-09-28T00:03:47;13.35;;;11.90;;
60472;SDS011;46318;52.716;6.444;2022-09-28T00:06:15;13.95;;;12.48;;
60472;SDS011;46318;52.716;6.444;2022-09-28T00:08:45;14.43;;;12.93;;
60472;SDS011;46318;52.716;6.444;2022-09-28T00:11:14;15.02;;;13.43;;
60472;SDS011;46318;52.716;6.444;2022-09-28T00:13:44;14.25;;;12.57;;
60472;SDS011;46318;52.716;6.444;2022-09-28T00:16:16;15.18;;;13.00;;
60472;SDS011;46318;52.716;6.444;2022-09-28T00:18:44;16.02;;;12.23;;
60472;SDS011;46318;52.716;6.444;2022-09-28T00:21:15;15.43;;;12.88;;
60472;SDS011;46318;52.716;6.444;2022-09-28T00:23:43;14.85;;;12.35;;
60472;SDS011;46318;52.716;6.444;2022-09-28T00:26:29;17.02;;;13.52;;
60472;SDS011;46318;52.716;6.444;2022-09-28T00:28:58;16.75;;;13.20;;
60472;SDS011;46318;52.716;6.444;2022-09-28T00:31:28;16.45;;;13.85;;
60472;SDS011;46318;52.716;6.444;2022-09-28T00:33:57;18.53;;;14.60;;
60472;SDS011;46318;52.716;6.444;2022-09-28T00:36:29;16.48;;;14.68;;
60472;SDS011;46318;52.716;6.444;2022-09-28T00:38:57;16.67;;;13.48;;
60472;SDS011;46318;52.716;6.444;2022-09-28T00:41:24;16.42;;;13.45;;
60472;SDS011;46318;52.716;6.444;2022-09-28T00:43:52;16.13;;;13.70;;
60472;SDS011;46318;52.716;6.444;2022-09-28T00:47:00;15.68;;;13.05;;
60472;SDS011;46318;52.716;6.444;2022-09-28T00:52:34;17.42;;;14.35;;
60472;SDS011;46318;52.716;6.444;2022-09-28T00:55:08;18.00;;;14.02;;
60472;SDS011;46318;52.716;6.444;2022-09-28T00:57:39;18.60;;;15.02;;
60472;SDS011;46318;52.716;6.444;2022-09-28T01:02:38;16.20;;;13.25;;
60472;SDS011;46318;52.716;6.444;2022-09-28T01:05:04;18.33;;;14.90;;
60472;SDS011;46318;52.716;6.444;2022-09-28T01:07:34;19.40;;;15.88;;
60472;SDS011;46318;52.716;6.444;2022-09-28T01:10:00;20.23;;;15.23;;
60472;SDS011;46318;52.716;6.444;2022-09-28T01:12:27;23.58;;;16.90;;
60472;SDS011;46318;52.716;6.444;2022-09-28T01:14:53;21.65;;;16.77;;
60472;SDS011;46318;52.716;6.444;2022-09-28T01:17:24;20.15;;;15.75;;
60472;SDS011;46318;52.716;6.444;2022-09-28T01:20:32;20.85;;;15.90;;
60472;SDS011;46318;52.716;6.444;2022-09-28T01:26:18;21.13;;;17.67;;
60472;SDS011;46318;52.716;6.444;2022-09-28T01:31:44;22.58;;;18.25;;
60472;SDS011;46318;52.716;6.444;2022-09-28T01:34:27;25.55;;;18.35;;
60472;SDS011;46318;52.716;6.444;2022-09-28T01:37:02;22.80;;;17.35;;
60472;SDS011;46318;52.716;6.444;2022-09-28T01:39:33;21.45;;;17.58;;
60472;SDS011;46318;52.716;6.444;2022-09-28T01:42:07;23.52;;;18.35;;
60472;SDS011;46318;52.716;6.444;2022-09-28T01:44:44;22.00;;;17.83;;
60472;SDS011;46318;52.716;6.444;2022-09-28T01:47:14;22.52;;;17.52;;
60472;SDS011;46318;52.716;6.444;2022-09-28T01:49:45;21.83;;;18.83;;
60472;SDS011;46318;52.716;6.444;2022-09-28T01:52:30;21.42;;;17.60;;
60472;SDS011;46318;52.716;6.444;2022-09-28T01:58:00;21.70;;;18.00;;
60472;SDS011;46318;52.716;6.444;2022-09-28T02:00:41;25.02;;;18.42;;
60472;SDS011;46318;52.716;6.444;2022-09-28T02:05:57;21.05;;;16.65;;
60472;SDS011;46318;52.716;6.444;2022-09-28T02:08:36;24.48;;;17.90;;
60472;SDS011;46318;52.716;6.444;2022-09-28T02:11:15;24.58;;;18.55;;
60472;SDS011;46318;52.716;6.444;2022-09-28T02:13:47;25.63;;;19.27;;
60472;SDS011;46318;52.716;6.444;2022-09-28T02:16:35;24.33;;;19.65;;
60472;SDS011;46318;52.716;6.444;2022-09-28T02:19:09;24.65;;;18.20;;
60472;SDS011;46318;52.716;6.444;2022-09-28T02:24:52;25.55;;;19.02;;
60472;SDS011;46318;52.716;6.444;2022-09-28T02:27:30;23.77;;;18.83;;
60472;SDS011;46318;52.716;6.444;2022-09-28T02:30:03;23.83;;;18.73;;
60472;SDS011;46318;52.716;6.444;2022-09-28T02:32:29;25.58;;;18.65;;
60472;SDS011;46318;52.716;6.444;2022-09-28T02:34:57;25.20;;;19.00;;
60472;SDS011;46318;52.716;6.444;2022-09-28T02:37:24;25.35;;;18.83;;
60472;SDS011;46318;52.716;6.444;2022-09-28T02:39:51;24.73;;;18.30;;
60472;SDS011;46318;52.716;6.444;2022-09-28T02:42:22;23.85;;;18.63;;
60472;SDS011;46318;52.716;6.444;2022-09-28T02:45:04;24.92;;;18.38;;
60472;SDS011;46318;52.716;6.444;2022-09-28T02:50:40;21.20;;;17.40;;
60472;SDS011;46318;52.716;6.444;2022-09-28T02:53:31;25.38;;;18.35;;
60472;SDS011;46318;52.716;6.444;2022-09-28T03:08:00;25.83;;;20.10;;
60472;SDS011;46318;52.716;6.444;2022-09-28T03:13:14;28.88;;;19.48;;
60472;SDS011;46318;52.716;6.444;2022-09-28T03:15:41;25.67;;;19.52;;
60472;SDS011;46318;52.716;6.444;2022-09-28T03:18:08;26.42;;;19.92;;
60472;SDS011;46318;52.716;6.444;2022-09-28T03:20:34;26.83;;;20.48;;
60472;SDS011;46318;52.716;6.444;2022-09-28T03:23:01;26.05;;;19.65;;
60472;SDS011;46318;52.716;6.444;2022-09-28T03:25:27;27.70;;;19.75;;
60472;SDS011;46318;52.716;6.444;2022-09-28T03:27:53;25.50;;;19.50;;
60472;SDS011;46318;52.716;6.444;2022-09-28T03:30:19;24.70;;;19.15;;
60472;SDS011;46318;52.716;6.444;2022-09-28T03:32:46;26.85;;;19.55;;
60472;SDS011;46318;52.716;6.444;2022-09-28T03:35:11;25.35;;;19.35;;
60472;SDS011;46318;52.716;6.444;2022-09-28T03:37:37;26.52;;;19.88;;
60472;SDS011;46318;52.716;6.444;2022-09-28T03:40:03;27.80;;;19.55;;
60472;SDS011;46318;52.716;6.444;2022-09-28T03:42:30;26.58;;;19.77;;
60472;SDS011;46318;52.716;6.444;2022-09-28T03:44:56;25.42;;;19.63;;
60472;SDS011;46318;52.716;6.444;2022-09-28T03:47:22;25.27;;;19.17;;
60472;SDS011;46318;52.716;6.444;2022-09-28T03:49:47;28.80;;;20.42;;
60472;SDS011;46318;52.716;6.444;2022-09-28T03:52:13;28.80;;;19.98;;
60472;SDS011;46318;52.716;6.444;2022-09-28T03:54:39;26.10;;;19.90;;
60472;SDS011;46318;52.716;6.444;2022-09-28T03:57:05;29.23;;;20.65;;
60472;SDS011;46318;52.716;6.444;2022-09-28T03:59:31;31.88;;;22.48;;
60472;SDS011;46318;52.716;6.444;2022-09-28T04:01:56;32.67;;;22.27;;
60472;SDS011;46318;52.716;6.444;2022-09-28T04:04:22;32.88;;;23.02;;
60472;SDS011;46318;52.716;6.444;2022-09-28T04:06:48;36.95;;;25.05;;
60472;SDS011;46318;52.716;6.444;2022-09-28T04:09:14;33.10;;;22.35;;
60472;SDS011;46318;52.716;6.444;2022-09-28T04:11:40;35.13;;;23.00;;
60472;SDS011;46318;52.716;6.444;2022-09-28T04:14:07;32.97;;;22.88;;
60472;SDS011;46318;52.716;6.444;2022-09-28T04:16:33;34.13;;;23.27;;
60472;SDS011;46318;52.716;6.444;2022-09-28T04:19:01;37.92;;;24.65;;
60472;SDS011;46318;52.716;6.444;2022-09-28T04:21:28;37.92;;;24.65;;
60472;SDS011;46318;52.716;6.444;2022-09-28T04:23:54;36.42;;;24.15;;
60472;SDS011;46318;52.716;6.444;2022-09-28T04:26:23;35.70;;;23.25;;
60472;SDS011;46318;52.716;6.444;2022-09-28T04:31:36;34.58;;;22.73;;
60472;SDS011;46318;52.716;6.444;2022-09-28T04:34:14;38.28;;;24.63;;
60472;SDS011;46318;52.716;6.444;2022-09-28T04:36:46;36.35;;;23.75;;
60472;SDS011;46318;52.716;6.444;2022-09-28T04:39:13;43.33;;;26.73;;
60472;SDS011;46318;52.716;6.444;2022-09-28T04:41:41;41.42;;;25.88;;
60472;SDS011;46318;52.716;6.444;2022-09-28T04:44:07;41.90;;;26.88;;
60472;SDS011;46318;52.716;6.444;2022-09-28T04:46:33;51.72;;;26.08;;
60472;SDS011;46318;52.716;6.444;2022-09-28T04:48:59;36.45;;;24.65;;
60472;SDS011;46318;52.716;6.444;2022-09-28T04:51:26;42.38;;;26.10;;
60472;SDS011;46318;52.716;6.444;2022-09-28T04:53:55;43.10;;;25.75;;
60472;SDS011;46318;52.716;6.444;2022-09-28T04:56:21;38.20;;;24.80;;
60472;SDS011;46318;52.716;6.444;2022-09-28T04:58:47;36.25;;;23.48;;
60472;SDS011;46318;52.716;6.444;2022-09-28T05:01:14;46.78;;;25.52;;
60472;SDS011;46318;52.716;6.444;2022-09-28T05:03:42;70.85;;;28.05;;
60472;SDS011;46318;52.716;6.444;2022-09-28T05:06:08;50.40;;;26.38;;
60472;SDS011;46318;52.716;6.444;2022-09-28T05:08:37;35.00;;;23.38;;
60472;SDS011;46318;52.716;6.444;2022-09-28T05:11:04;43.10;;;25.88;;
60472;SDS011;46318;52.716;6.444;2022-09-28T05:13:37;42.83;;;26.02;;
60472;SDS011;46318;52.716;6.444;2022-09-28T05:16:09;57.90;;;26.00;;
60472;SDS011;46318;52.716;6.444;2022-09-28T05:18:37;40.95;;;24.30;;
60472;SDS011;46318;52.716;6.444;2022-09-28T05:21:07;37.50;;;24.30;;
60472;SDS011;46318;52.716;6.444;2022-09-28T05:23:37;39.80;;;23.42;;
60472;SDS011;46318;52.716;6.444;2022-09-28T05:26:05;37.50;;;23.15;;
60472;SDS011;46318;52.716;6.444;2022-09-28T05:28:31;35.85;;;22.95;;
60472;SDS011;46318;52.716;6.444;2022-09-28T05:30:58;39.53;;;23.08;;
60472;SDS011;46318;52.716;6.444;2022-09-28T05:33:29;34.17;;;21.40;;
60472;SDS011;46318;52.716;6.444;2022-09-28T05:35:56;35.97;;;21.73;;
60472;SDS011;46318;52.716;6.444;2022-09-28T05:38:23;42.17;;;23.17;;
60472;SDS011;46318;52.716;6.444;2022-09-28T05:40:49;42.30;;;24.27;;
60472;SDS011;46318;52.716;6.444;2022-09-28T05:43:15;43.45;;;25.15;;
60472;SDS011;46318;52.716;6.444;2022-09-28T05:45:41;40.17;;;23.80;;
60472;SDS011;46318;52.716;6.444;2022-09-28T05:48:08;47.85;;;26.52;;
60472;SDS011;46318;52.716;6.444;2022-09-28T05:50:34;41.85;;;24.88;;
60472;SDS011;46318;52.716;6.444;2022-09-28T05:53:03;38.58;;;23.90;;
60472;SDS011;46318;52.716;6.444;2022-09-28T05:55:34;41.55;;;25.65;;
60472;SDS011;46318;52.716;6.444;2022-09-28T05:58:02;46.42;;;26.25;;
60472;SDS011;46318;52.716;6.444;2022-09-28T06:00:30;48.88;;;27.42;;
60472;SDS011;46318;52.716;6.444;2022-09-28T06:02:58;48.33;;;26.48;;
60472;SDS011;46318;52.716;6.444;2022-09-28T06:05:32;45.83;;;25.73;;
60472;SDS011;46318;52.716;6.444;2022-09-28T06:08:00;51.75;;;27.42;;
60472;SDS011;46318;52.716;6.444;2022-09-28T06:10:28;45.35;;;25.83;;
60472;SDS011;46318;52.716;6.444;2022-09-28T06:12:54;39.33;;;24.60;;
60472;SDS011;46318;52.716;6.444;2022-09-28T06:15:22;37.65;;;22.67;;
60472;SDS011;46318;52.716;6.444;2022-09-28T06:20:25;40.03;;;23.17;;
60472;SDS011;46318;52.716;6.444;2022-09-28T06:22:53;46.85;;;26.15;;
60472;SDS011;46318;52.716;6.444;2022-09-28T06:25:19;40.28;;;23.25;;
60472;SDS011;46318;52.716;6.444;2022-09-28T06:27:53;43.85;;;25.65;;
60472;SDS011;46318;52.716;6.444;2022-09-28T06:30:29;51.20;;;27.17;;
60472;SDS011;46318;52.716;6.444;2022-09-28T06:32:57;42.05;;;25.50;;
60472;SDS011;46318;52.716;6.444;2022-09-28T06:35:25;39.63;;;24.25;;
60472;SDS011;46318;52.716;6.444;2022-09-28T06:37:54;43.47;;;25.42;;
60472;SDS011;46318;52.716;6.444;2022-09-28T06:40:21;44.33;;;25.88;;
60472;SDS011;46318;52.716;6.444;2022-09-28T06:42:54;40.83;;;26.55;;
60472;SDS011;46318;52.716;6.444;2022-09-28T06:45:25;45.15;;;25.63;;
60472;SDS011;46318;52.716;6.444;2022-09-28T06:47:54;42.40;;;25.13;;
60472;SDS011;46318;52.716;6.444;2022-09-28T06:50:32;46.55;;;27.70;;
60472;SDS011;46318;52.716;6.444;2022-09-28T06:53:04;43.13;;;27.92;;
60472;SDS011;46318;52.716;6.444;2022-09-28T06:55:33;49.67;;;28.52;;
60472;SDS011;46318;52.716;6.444;2022-09-28T06:58:00;51.63;;;28.30;;
60472;SDS011;46318;52.716;6.444;2022-09-28T07:00:33;43.95;;;26.80;;
60472;SDS011;46318;52.716;6.444;2022-09-28T07:03:00;47.50;;;27.73;;
60472;SDS011;46318;52.716;6.444;2022-09-28T07:05:27;45.30;;;27.05;;
60472;SDS011;46318;52.716;6.444;2022-09-28T07:07:57;35.58;;;24.98;;
60472;SDS011;46318;52.716;6.444;2022-09-28T07:10:23;37.65;;;25.35;;
60472;SDS011;46318;52.716;6.444;2022-09-28T07:12:52;38.78;;;25.40;;
60472;SDS011;46318;52.716;6.444;2022-09-28T07:15:19;40.00;;;25.25;;
60472;SDS011;46318;52.716;6.444;2022-09-28T07:17:46;41.17;;;24.95;;
60472;SDS011;46318;52.716;6.444;2022-09-28T07:20:12;36.95;;;24.73;;
60472;SDS011;46318;52.716;6.444;2022-09-28T07:22:38;43.92;;;26.13;;
60472;SDS011;46318;52.716;6.444;2022-09-28T07:25:05;39.75;;;25.90;;
60472;SDS011;46318;52.716;6.444;2022-09-28T07:27:35;41.05;;;25.45;;
60472;SDS011;46318;52.716;6.444;2022-09-28T07:30:02;35.35;;;23.92;;
60472;SDS011;46318;52.716;6.444;2022-09-28T07:32:29;34.15;;;22.52;;
60472;SDS011;46318;52.716;6.444;2022-09-28T07:34:58;29.92;;;20.45;;
60472;SDS011;46318;52.716;6.444;2022-09-28T07:37:28;29.80;;;20.88;;
60472;SDS011;46318;52.716;6.444;2022-09-28T07:39:55;29.70;;;21.23;;
60472;SDS011;46318;52.716;6.444;2022-09-28T07:42:39;32.55;;;21.33;;
60472;SDS011;46318;52.716;6.444;2022-09-28T07:45:05;32.83;;;21.33;;
60472;SDS011;46318;52.716;6.444;2022-09-28T07:47:31;29.75;;;20.80;;
60472;SDS011;46318;52.716;6.444;2022-09-28T07:50:00;27.80;;;19.65;;
60472;SDS011;46318;52.716;6.444;2022-09-28T07:52:25;26.50;;;20.35;;
60472;SDS011;46318;52.716;6.444;2022-09-28T07:54:52;29.27;;;19.95;;
60472;SDS011;46318;52.716;6.444;2022-09-28T07:57:22;26.10;;;18.83;;
60472;SDS011;46318;52.716;6.444;2022-09-28T07:59:49;26.10;;;18.75;;
60472;SDS011;46318;52.716;6.444;2022-09-28T08:02:17;25.83;;;18.77;;
60472;SDS011;46318;52.716;6.444;2022-09-28T08:04:48;22.35;;;17.83;;
60472;SDS011;46318;52.716;6.444;2022-09-28T08:07:14;24.75;;;17.75;;
60472;SDS011;46318;52.716;6.444;2022-09-28T08:09:43;21.83;;;16.95;;
60472;SDS011;46318;52.716;6.444;2022-09-28T08:12:10;21.77;;;16.25;;
60472;SDS011;46318;52.716;6.444;2022-09-28T08:14:37;20.92;;;16.67;;
60472;SDS011;46318;52.716;6.444;2022-09-28T08:17:04;20.73;;;16.33;;
60472;SDS011;46318;52.716;6.444;2022-09-28T08:19:31;21.23;;;16.00;;
60472;SDS011;46318;52.716;6.444;2022-09-28T08:22:17;19.52;;;14.85;;
60472;SDS011;46318;52.716;6.444;2022-09-28T08:24:44;18.02;;;14.13;;
60472;SDS011;46318;52.716;6.444;2022-09-28T08:27:11;17.40;;;13.95;;
60472;SDS011;46318;52.716;6.444;2022-09-28T08:29:39;15.32;;;13.15;;
60472;SDS011;46318;52.716;6.444;2022-09-28T08:32:06;16.08;;;13.15;;
60472;SDS011;46318;52.716;6.444;2022-09-28T08:34:33;15.52;;;12.55;;
60472;SDS011;46318;52.716;6.444;2022-09-28T08:37:03;15.00;;;11.77;;
60472;SDS011;46318;52.716;6.444;2022-09-28T08:39:31;14.38;;;11.15;;
60472;SDS011;46318;52.716;6.444;2022-09-28T08:44:52;12.98;;;10.20;;
60472;SDS011;46318;52.716;6.444;2022-09-28T08:47:26;12.80;;;10.52;;
60472;SDS011;46318;52.716;6.444;2022-09-28T08:50:28;11.18;;;9.52;;
60472;SDS011;46318;52.716;6.444;2022-09-28T08:53:02;13.30;;;9.57;;
60472;SDS011;46318;52.716;6.444;2022-09-28T08:55:47;12.88;;;8.80;;
60472;SDS011;46318;52.716;6.444;2022-09-28T08:58:15;9.75;;;8.27;;
60472;SDS011;46318;52.716;6.444;2022-09-28T09:00:48;9.25;;;7.95;;
60472;SDS011;46318;52.716;6.444;2022-09-28T09:03:31;11.20;;;7.25;;
60472;SDS011;46318;52.716;6.444;2022-09-28T09:09:07;7.70;;;6.88;;
60472;SDS011;46318;52.716;6.444;2022-09-28T09:12:09;8.35;;;7.10;;
60472;SDS011;46318;52.716;6.444;2022-09-28T09:14:44;8.43;;;7.13;;
60472;SDS011;46318;52.716;6.444;2022-09-28T09:21:15;6.38;;;5.07;;
60472;SDS011;46318;52.716;6.444;2022-09-28T09:23:55;5.65;;;5.05;;
60472;SDS011;46318;52.716;6.444;2022-09-28T09:26:36;6.43;;;4.80;;
60472;SDS011;46318;52.716;6.444;2022-09-28T09:32:06;6.43;;;5.20;;
60472;SDS011;46318;52.716;6.444;2022-09-28T09:41:28;5.25;;;4.65;;
60472;SDS011;46318;52.716;6.444;2022-09-28T09:47:10;5.35;;;4.85;;
60472;SDS011;46318;52.716;6.444;2022-09-28T09:49:47;5.40;;;4.82;;
60472;SDS011;46318;52.716;6.444;2022-09-28T09:52:48;5.78;;;5.18;;
60472;SDS011;46318;52.716;6.444;2022-09-28T09:58:32;4.97;;;4.38;;
60472;SDS011;46318;52.716;6.444;2022-09-28T10:01:06;6.30;;;4.68;;
60472;SDS011;46318;52.716;6.444;2022-09-28T10:03:39;4.55;;;4.15;;
60472;SDS011;46318;52.716;6.444;2022-09-28T10:06:11;4.15;;;3.75;;
60472;SDS011;46318;52.716;6.444;2022-09-28T10:11:31;3.22;;;2.60;;
60472;SDS011;46318;52.716;6.444;2022-09-28T10:14:02;2.88;;;2.55;;
60472;SDS011;46318;52.716;6.444;2022-09-28T10:16:28;2.90;;;2.30;;
60472;SDS011;46318;52.716;6.444;2022-09-28T10:18:57;2.80;;;2.20;;
60472;SDS011;46318;52.716;6.444;2022-09-28T10:21:24;1.70;;;1.60;;
60472;SDS011;46318;52.716;6.444;2022-09-28T10:23:59;3.75;;;2.00;;
60472;SDS011;46318;52.716;6.444;2022-09-28T10:26:39;2.20;;;2.03;;
60472;SDS011;46318;52.716;6.444;2022-09-28T10:29:32;2.70;;;2.00;;
60472;SDS011;46318;52.716;6.444;2022-09-28T10:32:03;3.25;;;2.00;;
60472;SDS011;46318;52.716;6.444;2022-09-28T10:34:44;1.98;;;1.75;;
60472;SDS011;46318;52.716;6.444;2022-09-28T10:37:10;2.53;;;1.90;;
60472;SDS011;46318;52.716;6.444;2022-09-28T10:39:44;1.92;;;1.73;;
60472;SDS011;46318;52.716;6.444;2022-09-28T10:42:20;2.00;;;1.60;;
60472;SDS011;46318;52.716;6.444;2022-09-28T10:44:56;1.85;;;1.73;;
60472;SDS011;46318;52.716;6.444;2022-09-28T10:47:29;2.53;;;1.80;;
60472;SDS011;46318;52.716;6.444;2022-09-28T10:49:56;2.03;;;1.92;;
60472;SDS011;46318;52.716;6.444;2022-09-28T10:55:21;2.85;;;2.10;;
60472;SDS011;46318;52.716;6.444;2022-09-28T10:57:56;2.40;;;1.98;;
60472;SDS011;46318;52.716;6.444;2022-09-28T11:03:22;2.17;;;2.00;;
60472;SDS011;46318;52.716;6.444;2022-09-28T11:05:55;3.22;;;2.00;;
60472;SDS011;46318;52.716;6.444;2022-09-28T11:08:46;3.08;;;2.00;;
60472;SDS011;46318;52.716;6.444;2022-09-28T11:11:14;2.03;;;1.83;;
60472;SDS011;46318;52.716;6.444;2022-09-28T11:13:53;2.75;;;1.90;;
60472;SDS011;46318;52.716;6.444;2022-09-28T11:16:29;2.20;;;1.77;;
60472;SDS011;46318;52.716;6.444;2022-09-28T11:21:42;2.40;;;1.40;;
60472;SDS011;46318;52.716;6.444;2022-09-28T11:26:51;2.60;;;1.33;;
60472;SDS011;46318;52.716;6.444;2022-09-28T11:32:03;1.30;;;1.20;;
60472;SDS011;46318;52.716;6.444;2022-09-28T11:34:32;1.20;;;1.08;;
60472;SDS011;46318;52.716;6.444;2022-09-28T11:40:03;3.05;;;1.40;;
60472;SDS011;46318;52.716;6.444;2022-09-28T11:42:44;2.00;;;1.40;;
60472;SDS011;46318;52.716;6.444;2022-09-28T11:45:20;2.75;;;1.40;;
60472;SDS011;46318;52.716;6.444;2022-09-28T11:48:00;3.30;;;1.35;;
60472;SDS011;46318;52.716;6.444;2022-09-28T11:50:34;2.10;;;1.02;;
60472;SDS011;46318;52.716;6.444;2022-09-28T11:53:35;1.45;;;0.70;;
60472;SDS011;46318;52.716;6.444;2022-09-28T11:59:13;0.88;;;0.20;;
60472;SDS011;46318;52.716;6.444;2022-09-28T12:01:55;0.38;;;0.22;;
60472;SDS011;46318;52.716;6.444;2022-09-28T12:04:45;0.63;;;0.30;;
60472;SDS011;46318;52.716;6.444;2022-09-28T12:07:45;1.15;;;0.50;;
60472;SDS011;46318;52.716;6.444;2022-09-28T12:10:35;1.25;;;0.40;;
60472;SDS011;46318;52.716;6.444;2022-09-28T12:13:08;2.88;;;0.70;;
60472;SDS011;46318;52.716;6.444;2022-09-28T12:23:52;1.05;;;0.60;;
60472;SDS011;46318;52.716;6.444;2022-09-28T12:26:27;1.67;;;0.70;;
60472;SDS011;46318;52.716;6.444;2022-09-28T12:29:04;1.67;;;0.63;;
60472;SDS011;46318;52.716;6.444;2022-09-28T12:31:38;2.30;;;0.68;;
60472;SDS011;46318;52.716;6.444;2022-09-28T12:34:20;1.27;;;0.40;;
60472;SDS011;46318;52.716;6.444;2022-09-28T12:36:50;0.90;;;0.57;;
60472;SDS011;46318;52.716;6.444;2022-09-28T13:06:14;2.42;;;0.90;;
60472;SDS011;46318;52.716;6.444;2022-09-28T13:11:44;1.45;;;0.70;;
60472;SDS011;46318;52.716;6.444;2022-09-28T13:14:48;1.27;;;0.40;;
60472;SDS011;46318;52.716;6.444;2022-09-28T13:17:54;0.52;;;0.40;;
60472;SDS011;46318;52.716;6.444;2022-09-28T13:20:42;0.88;;;0.40;;
60472;SDS011;46318;52.716;6.444;2022-09-28T13:23:34;0.98;;;0.70;;
60472;SDS011;46318;52.716;6.444;2022-09-28T13:29:02;0.63;;;0.52;;
60472;SDS011;46318;52.716;6.444;2022-09-28T13:31:44;1.48;;;1.00;;
60472;SDS011;46318;52.716;6.444;2022-09-28T13:34:27;1.05;;;1.00;;
60472;SDS011;46318;52.716;6.444;2022-09-28T13:39:55;3.40;;;1.85;;
60472;SDS011;46318;52.716;6.444;2022-09-28T13:47:51;1.58;;;0.93;;
60472;SDS011;46318;52.716;6.444;2022-09-28T13:50:37;0.70;;;0.68;;
60472;SDS011;46318;52.716;6.444;2022-09-28T13:59:24;3.47;;;1.92;;
60472;SDS011;46318;52.716;6.444;2022-09-28T14:04:57;3.47;;;1.95;;
60472;SDS011;46318;52.716;6.444;2022-09-28T14:12:52;0.73;;;0.70;;
60472;SDS011;46318;52.716;6.444;2022-09-28T14:17:57;1.23;;;0.73;;
60472;SDS011;46318;52.716;6.444;2022-09-28T14:20:52;2.05;;;0.98;;
60472;SDS011;46318;52.716;6.444;2022-09-28T14:24:07;1.33;;;0.80;;
60472;SDS011;46318;52.716;6.444;2022-09-28T14:26:59;0.98;;;0.70;;
60472;SDS011;46318;52.716;6.444;2022-09-28T14:29:42;2.00;;;0.70;;
60472;SDS011;46318;52.716;6.444;2022-09-28T14:34:39;1.92;;;0.70;;
60472;SDS011;46318;52.716;6.444;2022-09-28T14:37:21;1.58;;;0.60;;
60472;SDS011;46318;52.716;6.444;2022-09-28T14:48:48;1.83;;;1.73;;
60472;SDS011;46318;52.716;6.444;2022-09-28T14:59:26;1.60;;;1.02;;
60472;SDS011;46318;52.716;6.444;2022-09-28T15:04:53;1.65;;;1.00;;
60472;SDS011;46318;52.716;6.444;2022-09-28T15:07:29;1.08;;;0.80;;
60472;SDS011;46318;52.716;6.444;2022-09-28T15:10:20;1.55;;;0.88;;
60472;SDS011;46318;52.716;6.444;2022-09-28T15:12:57;1.10;;;0.70;;
60472;SDS011;46318;52.716;6.444;2022-09-28T15:21:11;0.70;;;0.70;;
60472;SDS011;46318;52.716;6.444;2022-09-28T15:23:39;0.70;;;0.50;;
60472;SDS011;46318;52.716;6.444;2022-09-28T15:29:18;0.95;;;0.57;;
60472;SDS011;46318;52.716;6.444;2022-09-28T15:31:46;1.00;;;0.70;;
60472;SDS011;46318;52.716;6.444;2022-09-28T15:34:34;0.50;;;0.50;;
60472;SDS011;46318;52.716;6.444;2022-09-28T15:37:16;0.52;;;0.52;;
60472;SDS011;46318;52.716;6.444;2022-09-28T15:39:54;0.55;;;0.40;;
60472;SDS011;46318;52.716;6.444;2022-09-28T15:42:21;0.65;;;0.50;;
60472;SDS011;46318;52.716;6.444;2022-09-28T15:45:22;1.20;;;0.40;;
60472;SDS011;46318;52.716;6.444;2022-09-28T15:48:19;0.32;;;0.32;;
60472;SDS011;46318;52.716;6.444;2022-09-28T15:50:58;0.98;;;0.50;;
60472;SDS011;46318;52.716;6.444;2022-09-28T15:53:34;0.55;;;0.50;;
60472;SDS011;46318;52.716;6.444;2022-09-28T15:56:06;2.03;;;0.40;;
60472;SDS011;46318;52.716;6.444;2022-09-28T15:58:34;0.60;;;0.60;;
60472;SDS011;46318;52.716;6.444;2022-09-28T16:01:25;0.65;;;0.40;;
60472;SDS011;46318;52.716;6.444;2022-09-28T16:03:59;0.50;;;0.50;;
60472;SDS011;46318;52.716;6.444;2022-09-28T16:09:55;1.75;;;0.60;;
60472;SDS011;46318;52.716;6.444;2022-09-28T16:12:28;0.60;;;0.45;;
60472;SDS011;46318;52.716;6.444;2022-09-28T16:20:48;0.80;;;0.80;;
60472;SDS011;46318;52.716;6.444;2022-09-28T16:23:24;0.90;;;0.90;;
60472;SDS011;46318;52.716;6.444;2022-09-28T16:26:00;1.15;;;0.60;;
60472;SDS011;46318;52.716;6.444;2022-09-28T16:31:06;0.35;;;0.30;;
60472;SDS011;46318;52.716;6.444;2022-09-28T16:33:57;0.30;;;0.30;;
60472;SDS011;46318;52.716;6.444;2022-09-28T16:36:41;0.77;;;0.40;;
60472;SDS011;46318;52.716;6.444;2022-09-28T16:39:13;0.57;;;0.30;;
60472;SDS011;46318;52.716;6.444;2022-09-28T16:41:46;0.45;;;0.28;;
60472;SDS011;46318;52.716;6.444;2022-09-28T16:44:19;0.80;;;0.60;;
60472;SDS011;46318;52.716;6.444;2022-09-28T16:46:49;0.85;;;0.75;;
60472;SDS011;46318;52.716;6.444;2022-09-28T16:49:19;0.82;;;0.70;;
60472;SDS011;46318;52.716;6.444;2022-09-28T16:51:46;0.30;;;0.30;;
60472;SDS011;46318;52.716;6.444;2022-09-28T16:54:13;0.30;;;0.30;;
60472;SDS011;46318;52.716;6.444;2022-09-28T16:57:03;0.35;;;0.35;;
60472;SDS011;46318;52.716;6.444;2022-09-28T16:59:31;0.65;;;0.35;;
60472;SDS011;46318;52.716;6.444;2022-09-28T17:01:58;0.52;;;0.52;;
60472;SDS011;46318;52.716;6.444;2022-09-28T17:04:25;0.38;;;0.38;;
60472;SDS011;46318;52.716;6.444;2022-09-28T17:06:51;0.85;;;0.50;;
60472;SDS011;46318;52.716;6.444;2022-09-28T17:09:22;2.50;;;0.90;;
60472;SDS011;46318;52.716;6.444;2022-09-28T17:11:49;1.65;;;0.85;;
60472;SDS011;46318;52.716;6.444;2022-09-28T17:14:21;1.98;;;0.77;;
60472;SDS011;46318;52.716;6.444;2022-09-28T17:16:48;0.90;;;0.65;;
60472;SDS011;46318;52.716;6.444;2022-09-28T17:19:19;0.70;;;0.70;;
60472;SDS011;46318;52.716;6.444;2022-09-28T17:21:50;2.90;;;2.58;;
60472;SDS011;46318;52.716;6.444;2022-09-28T17:24:17;4.05;;;3.63;;
60472;SDS011;46318;52.716;6.444;2022-09-28T17:26:44;4.35;;;3.60;;
60472;SDS011;46318;52.716;6.444;2022-09-28T17:29:11;4.00;;;3.60;;
60472;SDS011;46318;52.716;6.444;2022-09-28T17:31:42;3.45;;;3.15;;
60472;SDS011;46318;52.716;6.444;2022-09-28T17:34:10;4.07;;;3.67;;
60472;SDS011;46318;52.716;6.444;2022-09-28T17:36:39;4.63;;;4.13;;
60472;SDS011;46318;52.716;6.444;2022-09-28T17:39:09;12.23;;;9.73;;
60472;SDS011;46318;52.716;6.444;2022-09-28T17:41:40;7.22;;;6.20;;
60472;SDS011;46318;52.716;6.444;2022-09-28T17:44:06;17.17;;;11.57;;
60472;SDS011;46318;52.716;6.444;2022-09-28T17:46:33;19.63;;;12.45;;
60472;SDS011;46318;52.716;6.444;2022-09-28T17:49:03;22.85;;;15.25;;
60472;SDS011;46318;52.716;6.444;2022-09-28T17:51:32;24.15;;;15.00;;
60472;SDS011;46318;52.716;6.444;2022-09-28T17:54:05;27.95;;;16.27;;
60472;SDS011;46318;52.716;6.444;2022-09-28T17:56:32;21.48;;;12.95;;
60472;SDS011;46318;52.716;6.444;2022-09-28T17:58:59;28.25;;;17.02;;
60472;SDS011;46318;52.716;6.444;2022-09-28T18:01:30;30.25;;;17.17;;
60472;SDS011;46318;52.716;6.444;2022-09-28T18:06:29;40.30;;;21.88;;
60472;SDS011;46318;52.716;6.444;2022-09-28T18:08:57;48.40;;;26.00;;
60472;SDS011;46318;52.716;6.444;2022-09-28T18:11:24;28.20;;;15.55;;
60472;SDS011;46318;52.716;6.444;2022-09-28T18:13:50;30.13;;;17.42;;
60472;SDS011;46318;52.716;6.444;2022-09-28T18:16:16;26.52;;;14.57;;
60472;SDS011;46318;52.716;6.444;2022-09-28T18:18:44;13.50;;;8.65;;
60472;SDS011;46318;52.716;6.444;2022-09-28T18:21:11;10.18;;;7.50;;
60472;SDS011;46318;52.716;6.444;2022-09-28T18:23:37;8.20;;;6.53;;
60472;SDS011;46318;52.716;6.444;2022-09-28T18:26:04;8.35;;;5.30;;
60472;SDS011;46318;52.716;6.444;2022-09-28T18:28:36;6.63;;;3.90;;